Time;durP1;ratioP1;P1;durP2;ratioP2;P2;SDS_P1;SDS_P2;PMS_P1;PMS_P2;Temp;Humidity;BMP_temperature;BMP_pressure;BME280_temperature;BME280_humidity;BME280_pressure;Samples;Min_cycle;Max_cycle;Signal;HPM_P1;HPM_P2
2022/07/25 00:03:24;;;;;;;4.60;3.97;;;;;;;;;;4468133;23;43190;-65
2022/07/25 00:05:34;;;;;;;4.43;4.03;;;;;;;;;;4463874;28;20480;-65
2022/07/25 00:07:45;;;;;;;4.95;4.07;;;;;;;;;;4461772;28;20039;-65
2022/07/25 00:09:55;;;;;;;4.53;3.90;;;;;;;;;;4465014;28;20499;-65
2022/07/25 00:12:06;;;;;;;4.88;3.83;;;;;;;;;;4462988;28;20138;-65
2022/07/25 00:14:17;;;;;;;5.10;4.10;;;;;;;;;;4462311;28;20045;-65
2022/07/25 00:16:27;;;;;;;4.50;3.60;;;;;;;;;;4461247;28;20039;-64
2022/07/25 00:18:38;;;;;;;4.68;3.70;;;;;;;;;;4451685;28;20384;-65
2022/07/25 00:20:48;;;;;;;4.05;3.60;;;;;;;;;;4448456;28;20347;-65
2022/07/25 00:22:58;;;;;;;4.35;3.92;;;;;;;;;;4460408;28;20024;-65
2022/07/25 00:25:09;;;;;;;4.75;3.95;;;;;;;;;;4462539;28;20598;-64
2022/07/25 00:27:19;;;;;;;4.22;3.80;;;;;;;;;;4463012;28;20101;-65
2022/07/25 00:29:30;;;;;;;4.38;3.90;;;;;;;;;;4461103;28;20058;-65
2022/07/25 00:31:40;;;;;;;4.90;4.05;;;;;;;;;;4456926;28;21124;-65
2022/07/25 00:33:51;;;;;;;4.85;3.85;;;;;;;;;;4444328;28;20347;-65
2022/07/25 00:36:01;;;;;;;4.20;3.80;;;;;;;;;;4461746;28;20047;-65
2022/07/25 00:38:12;;;;;;;5.05;4.20;;;;;;;;;;4461438;28;20062;-65
2022/07/25 00:40:22;;;;;;;4.80;4.20;;;;;;;;;;4462109;28;20137;-65
2022/07/25 00:42:33;;;;;;;5.30;4.28;;;;;;;;;;4462315;28;20031;-65
2022/07/25 00:44:43;;;;;;;4.68;4.13;;;;;;;;;;4463692;28;20026;-65
2022/07/25 00:46:54;;;;;;;5.07;4.32;;;;;;;;;;4452783;28;20035;-65
2022/07/25 00:49:05;;;;;;;4.95;4.10;;;;;;;;;;4464291;28;20110;-65
2022/07/25 00:51:15;;;;;;;5.18;4.03;;;;;;;;;;4461631;28;20351;-65
2022/07/25 00:53:26;;;;;;;5.57;3.85;;;;;;;;;;4446138;28;20491;-65
2022/07/25 00:55:37;;;;;;;4.47;3.78;;;;;;;;;;4461637;28;20050;-65
2022/07/25 00:57:47;;;;;;;4.68;3.92;;;;;;;;;;4461374;28;20043;-65
2022/07/25 00:59:57;;;;;;;4.57;4.13;;;;;;;;;;4446590;28;20031;-65
2022/07/25 01:02:08;;;;;;;4.20;3.50;;;;;;;;;;4463133;28;20034;-64
2022/07/25 01:04:19;;;;;;;5.05;4.00;;;;;;;;;;4461841;28;20098;-65
2022/07/25 01:06:30;;;;;;;4.47;3.95;;;;;;;;;;4451891;28;20035;-65
2022/07/25 01:08:40;;;;;;;5.05;3.90;;;;;;;;;;4446569;28;20047;-64
2022/07/25 01:10:51;;;;;;;4.57;3.78;;;;;;;;;;4462441;28;20043;-65
2022/07/25 01:13:02;;;;;;;5.05;4.20;;;;;;;;;;4446191;28;20047;-65
2022/07/25 01:15:12;;;;;;;4.82;3.95;;;;;;;;;;4443313;28;20480;-65
2022/07/25 01:17:23;;;;;;;5.07;4.10;;;;;;;;;;4446568;28;20031;-65
2022/07/25 01:19:34;;;;;;;5.05;3.72;;;;;;;;;;4450998;28;21208;-65
2022/07/25 01:21:44;;;;;;;4.30;3.80;;;;;;;;;;4461589;28;20034;-65
2022/07/25 01:23:55;;;;;;;4.90;4.20;;;;;;;;;;4458490;28;20069;-65
2022/07/25 01:26:05;;;;;;;5.07;3.70;;;;;;;;;;4446147;28;20031;-65
2022/07/25 01:28:17;;;;;;;3.95;3.42;;;;;;;;;;4459510;28;20039;-65
2022/07/25 01:30:27;;;;;;;4.85;3.72;;;;;;;;;;4460043;28;20106;-65
2022/07/25 01:32:38;;;;;;;4.15;3.72;;;;;;;;;;4462790;28;20058;-65
2022/07/25 01:34:48;;;;;;;4.55;3.95;;;;;;;;;;4463824;28;20126;-65
2022/07/25 01:36:59;;;;;;;4.57;4.07;;;;;;;;;;4463699;28;20034;-65
2022/07/25 01:39:09;;;;;;;4.72;3.72;;;;;;;;;;4436583;28;20038;-65
2022/07/25 01:41:20;;;;;;;4.30;3.90;;;;;;;;;;4452060;28;20811;-65
2022/07/25 01:43:30;;;;;;;4.38;3.90;;;;;;;;;;4464138;28;20038;-65
2022/07/25 01:45:41;;;;;;;4.40;4.00;;;;;;;;;;4464383;28;20122;-65
2022/07/25 01:47:51;;;;;;;4.45;3.95;;;;;;;;;;4464726;28;20042;-65
2022/07/25 01:50:02;;;;;;;5.13;4.10;;;;;;;;;;4446241;28;20023;-65
2022/07/25 01:52:13;;;;;;;4.38;3.97;;;;;;;;;;4464571;28;20051;-65
2022/07/25 01:54:24;;;;;;;4.60;4.10;;;;;;;;;;4461957;28;20038;-66
2022/07/25 01:56:34;;;;;;;4.93;4.32;;;;;;;;;;4465325;28;20040;-66
2022/07/25 01:58:44;;;;;;;4.60;4.10;;;;;;;;;;4463497;28;20529;-65
2022/07/25 02:00:55;;;;;;;4.22;3.80;;;;;;;;;;4463745;28;20077;-65
2022/07/25 02:05:35;;;;;;;4.22;3.83;;;;;;;;;;4456089;28;20039;-65
2022/07/25 02:07:45;;;;;;;4.47;3.90;;;;;;;;;;4463557;28;20023;-65
2022/07/25 02:09:56;;;;;;;4.68;4.15;;;;;;;;;;4463917;28;20039;-65
2022/07/25 02:12:07;;;;;;;4.63;3.95;;;;;;;;;;4465791;28;20054;-65
2022/07/25 02:14:17;;;;;;;4.65;4.10;;;;;;;;;;4464835;28;20605;-65
2022/07/25 02:16:28;;;;;;;4.20;3.80;;;;;;;;;;4464080;28;20130;-66
2022/07/25 02:18:39;;;;;;;5.45;4.10;;;;;;;;;;4464020;28;20557;-66
2022/07/25 02:20:49;;;;;;;4.63;3.90;;;;;;;;;;4465635;28;20506;-65
2022/07/25 02:22:59;;;;;;;4.70;4.20;;;;;;;;;;4464850;28;20031;-65
2022/07/25 02:25:10;;;;;;;4.80;4.28;;;;;;;;;;4462299;28;20558;-67
2022/07/25 02:27:20;;;;;;;5.03;3.80;;;;;;;;;;4465100;28;20101;-65
2022/07/25 02:29:31;;;;;;;5.40;4.07;;;;;;;;;;4462690;28;20396;-65
2022/07/25 02:31:42;;;;;;;4.53;3.70;;;;;;;;;;4462112;28;20046;-66
2022/07/25 02:33:52;;;;;;;4.60;4.10;;;;;;;;;;4466338;28;20452;-66
2022/07/25 02:36:03;;;;;;;5.20;4.28;;;;;;;;;;4464302;28;20050;-66
2022/07/25 02:38:18;;;;;;;4.68;4.18;;;;;;;;;;4466559;28;20046;-65
2022/07/25 02:40:28;;;;;;;4.55;4.00;;;;;;;;;;4464151;28;20632;-65
2022/07/25 02:42:39;;;;;;;5.05;4.30;;;;;;;;;;4444103;28;20046;-65
2022/07/25 02:44:49;;;;;;;4.72;4.00;;;;;;;;;;4466114;28;20050;-66
2022/07/25 02:47:00;;;;;;;5.38;4.20;;;;;;;;;;4462552;28;20114;-65
2022/07/25 02:49:10;;;;;;;4.90;4.03;;;;;;;;;;4463151;28;20047;-65
2022/07/25 02:51:21;;;;;;;4.82;4.05;;;;;;;;;;4461932;28;20730;-66
2022/07/25 02:53:31;;;;;;;4.97;3.90;;;;;;;;;;4461616;28;20114;-66
2022/07/25 02:55:42;;;;;;;4.78;4.10;;;;;;;;;;4464262;28;20085;-66
2022/07/25 02:57:52;;;;;;;5.28;4.30;;;;;;;;;;4463884;28;20122;-66
2022/07/25 03:00:05;;;;;;;4.60;4.10;;;;;;;;;;4451855;28;20370;-66
2022/07/25 03:02:15;;;;;;;4.82;3.90;;;;;;;;;;4461869;28;20045;-65
2022/07/25 03:04:26;;;;;;;5.40;4.00;;;;;;;;;;4464117;28;20037;-67
2022/07/25 03:06:36;;;;;;;4.50;3.97;;;;;;;;;;4461442;28;20836;-66
2022/07/25 03:08:47;;;;;;;4.50;3.85;;;;;;;;;;4464578;28;20058;-66
2022/07/25 03:10:57;;;;;;;4.25;3.75;;;;;;;;;;4465566;28;20030;-65
2022/07/25 03:13:08;;;;;;;4.05;3.65;;;;;;;;;;4459980;28;20126;-65
2022/07/25 03:15:18;;;;;;;5.03;3.90;;;;;;;;;;4447459;28;20950;-65
2022/07/25 03:17:29;;;;;;;4.90;4.03;;;;;;;;;;4461699;28;20133;-65
2022/07/25 03:19:39;;;;;;;5.28;4.20;;;;;;;;;;4463190;28;20503;-65
2022/07/25 03:21:50;;;;;;;4.47;3.75;;;;;;;;;;4452183;28;20045;-65
2022/07/25 03:24:00;;;;;;;4.72;4.00;;;;;;;;;;4463891;28;20035;-65
2022/07/25 03:26:11;;;;;;;4.63;4.00;;;;;;;;;;4462622;28;20487;-66
2022/07/25 03:28:23;;;;;;;5.18;4.10;;;;;;;;;;4461398;28;20047;-65
2022/07/25 03:30:33;;;;;;;4.53;3.92;;;;;;;;;;4464397;28;20031;-66
2022/07/25 03:32:44;;;;;;;5.05;4.32;;;;;;;;;;4465411;28;20048;-66
2022/07/25 03:34:54;;;;;;;4.35;3.92;;;;;;;;;;4463946;28;20065;-65
2022/07/25 03:37:05;;;;;;;5.85;4.50;;;;;;;;;;4463487;28;20158;-65
2022/07/25 03:39:15;;;;;;;4.60;4.05;;;;;;;;;;4463894;28;20114;-65
2022/07/25 03:41:26;;;;;;;5.00;4.40;;;;;;;;;;4464032;28;20035;-66
2022/07/25 03:43:36;;;;;;;4.88;4.10;;;;;;;;;;4462556;28;20043;-65
2022/07/25 03:45:47;;;;;;;5.18;4.05;;;;;;;;;;4463768;28;20445;-65
2022/07/25 03:47:57;;;;;;;5.38;4.28;;;;;;;;;;4464116;28;20078;-65
2022/07/25 03:50:08;;;;;;;5.55;4.22;;;;;;;;;;4464905;28;20028;-65
2022/07/25 03:52:18;;;;;;;5.88;4.53;;;;;;;;;;4463968;28;20129;-66
2022/07/25 03:54:29;;;;;;;5.70;4.50;;;;;;;;;;4446000;28;20035;-65
2022/07/25 03:56:42;;;;;;;4.68;4.05;;;;;;;;;;4463877;28;20130;-65
2022/07/25 03:58:53;;;;;;;4.88;4.20;;;;;;;;;;4464596;28;20031;-66
2022/07/25 04:01:03;;;;;;;5.18;4.00;;;;;;;;;;4463587;28;20915;-65
2022/07/25 04:03:13;;;;;;;4.57;4.05;;;;;;;;;;4465354;28;20505;-65
2022/07/25 04:05:24;;;;;;;4.88;4.32;;;;;;;;;;4465410;28;20051;-66
2022/07/25 04:07:35;;;;;;;5.25;4.38;;;;;;;;;;4463210;28;20158;-65
2022/07/25 04:09:46;;;;;;;4.93;3.97;;;;;;;;;;4431595;28;20572;-66
2022/07/25 04:11:56;;;;;;;6.95;4.25;;;;;;;;;;4465006;28;20139;-65
2022/07/25 04:14:06;;;;;;;6.03;4.25;;;;;;;;;;4464787;28;20039;-65
2022/07/25 04:16:17;;;;;;;4.25;3.80;;;;;;;;;;4466610;28;20801;-65
2022/07/25 04:18:27;;;;;;;5.28;4.25;;;;;;;;;;4440044;28;20087;-66
2022/07/25 04:20:38;;;;;;;5.68;4.30;;;;;;;;;;4464332;28;20130;-66
2022/07/25 04:22:48;;;;;;;5.38;4.50;;;;;;;;;;4462742;28;20026;-65
2022/07/25 04:24:59;;;;;;;4.35;3.50;;;;;;;;;;4464850;28;20031;-66
2022/07/25 04:27:09;;;;;;;5.05;4.03;;;;;;;;;;4464304;28;20049;-65
2022/07/25 04:29:20;;;;;;;5.15;4.10;;;;;;;;;;4447767;28;20731;-65
2022/07/25 04:31:30;;;;;;;5.45;4.63;;;;;;;;;;4463855;28;20042;-65
2022/07/25 04:33:42;;;;;;;5.03;4.20;;;;;;;;;;4465747;28;20538;-65
2022/07/25 04:35:52;;;;;;;5.35;4.20;;;;;;;;;;4448675;28;20117;-66
2022/07/25 04:38:03;;;;;;;5.28;3.80;;;;;;;;;;4462215;28;20122;-65
2022/07/25 04:40:14;;;;;;;4.68;4.15;;;;;;;;;;4462380;28;20027;-65
2022/07/25 04:42:24;;;;;;;4.80;3.78;;;;;;;;;;4451517;28;20031;-65
2022/07/25 04:44:35;;;;;;;4.43;3.90;;;;;;;;;;4462208;28;20085;-65
2022/07/25 04:46:45;;;;;;;5.22;3.70;;;;;;;;;;4463597;28;20067;-66
2022/07/25 04:48:55;;;;;;;4.72;3.60;;;;;;;;;;4465489;28;20070;-65
2022/07/25 04:51:06;;;;;;;4.00;3.55;;;;;;;;;;4453687;28;20574;-65
2022/07/25 04:53:17;;;;;;;4.28;3.65;;;;;;;;;;4462982;28;20047;-65
2022/07/25 04:55:27;;;;;;;5.47;3.80;;;;;;;;;;4465581;28;20031;-66
2022/07/25 04:57:38;;;;;;;5.15;3.85;;;;;;;;;;4464105;28;20030;-65
2022/07/25 04:59:48;;;;;;;4.43;4.00;;;;;;;;;;4462066;28;20031;-65
2022/07/25 05:02:00;;;;;;;4.90;4.07;;;;;;;;;;4461199;28;20039;-65
2022/07/25 05:04:10;;;;;;;4.95;3.83;;;;;;;;;;4463059;28;20063;-65
2022/07/25 05:06:21;;;;;;;4.72;4.03;;;;;;;;;;4461326;28;20142;-65
2022/07/25 05:08:31;;;;;;;5.28;3.90;;;;;;;;;;4460763;28;20046;-65
2022/07/25 05:10:42;;;;;;;4.50;4.10;;;;;;;;;;4443806;28;22850;-65
2022/07/25 05:12:53;;;;;;;5.30;4.22;;;;;;;;;;4460372;28;20117;-66
2022/07/25 05:15:04;;;;;;;6.85;4.20;;;;;;;;;;4452149;28;20488;-66
2022/07/25 05:17:15;;;;;;;4.53;3.60;;;;;;;;;;4452268;28;20035;-66
2022/07/25 05:19:25;;;;;;;5.10;3.95;;;;;;;;;;4462513;28;20550;-65
2022/07/25 05:21:37;;;;;;;4.72;4.15;;;;;;;;;;4459391;28;20091;-65
2022/07/25 05:23:47;;;;;;;4.38;3.95;;;;;;;;;;4461379;28;20041;-65
2022/07/25 05:25:58;;;;;;;5.68;4.40;;;;;;;;;;4461704;28;20096;-65
2022/07/25 05:28:08;;;;;;;5.05;4.10;;;;;;;;;;4463864;28;20098;-65
2022/07/25 05:30:19;;;;;;;5.22;3.95;;;;;;;;;;4460575;28;20062;-65
2022/07/25 05:32:30;;;;;;;6.13;4.30;;;;;;;;;;4461474;28;20130;-65
2022/07/25 05:34:40;;;;;;;4.85;4.35;;;;;;;;;;4444506;28;20043;-65
2022/07/25 05:36:51;;;;;;;4.80;4.03;;;;;;;;;;4462836;28;20034;-65
2022/07/25 05:39:02;;;;;;;4.20;3.72;;;;;;;;;;4463861;28;20699;-65
2022/07/25 05:41:13;;;;;;;4.57;3.95;;;;;;;;;;4444267;28;20210;-65
2022/07/25 05:43:23;;;;;;;5.15;3.78;;;;;;;;;;4463928;28;20070;-65
2022/07/25 05:45:34;;;;;;;5.43;4.32;;;;;;;;;;4460176;28;20079;-66
2022/07/25 05:47:44;;;;;;;4.70;3.85;;;;;;;;;;4445394;28;20046;-65
2022/07/25 05:49:55;;;;;;;4.97;3.97;;;;;;;;;;4459323;28;20074;-65
2022/07/25 05:52:06;;;;;;;5.15;3.97;;;;;;;;;;4460711;28;20034;-65
2022/07/25 05:54:16;;;;;;;5.18;3.95;;;;;;;;;;4460394;28;20419;-65
2022/07/25 05:56:28;;;;;;;5.22;3.78;;;;;;;;;;4460807;28;20101;-65
2022/07/25 05:58:39;;;;;;;4.95;4.10;;;;;;;;;;4463181;28;20182;-65
2022/07/25 06:00:50;;;;;;;4.75;3.95;;;;;;;;;;4463050;28;20047;-65
2022/07/25 06:03:00;;;;;;;5.72;4.10;;;;;;;;;;4462608;28;20042;-65
2022/07/25 06:05:11;;;;;;;4.72;4.18;;;;;;;;;;4451493;28;20043;-65
2022/07/25 06:07:21;;;;;;;4.93;4.15;;;;;;;;;;4459864;28;20062;-65
2022/07/25 06:09:32;;;;;;;5.78;4.07;;;;;;;;;;4464416;28;20031;-65
2022/07/25 06:11:42;;;;;;;4.68;4.22;;;;;;;;;;4460734;28;20142;-65
2022/07/25 06:13:53;;;;;;;4.50;3.88;;;;;;;;;;4464395;28;20472;-65
2022/07/25 06:16:04;;;;;;;5.00;4.20;;;;;;;;;;4462310;28;20036;-65
2022/07/25 06:18:15;;;;;;;4.68;4.15;;;;;;;;;;4463696;28;20031;-65
2022/07/25 06:20:25;;;;;;;4.90;4.05;;;;;;;;;;4464359;28;20035;-65
2022/07/25 06:22:36;;;;;;;4.65;4.15;;;;;;;;;;4464871;28;20038;-65
2022/07/25 06:24:46;;;;;;;3.10;2.40;;;;;;;;;;4467977;28;20043;-66
2022/07/25 06:26:57;;;;;;;2.50;1.88;;;;;;;;;;4466360;28;20032;-65
2022/07/25 06:29:07;;;;;;;2.63;2.10;;;;;;;;;;4463849;28;20573;-65
2022/07/25 06:31:18;;;;;;;2.25;2.00;;;;;;;;;;4440968;28;20043;-65
2022/07/25 06:33:28;;;;;;;2.75;2.10;;;;;;;;;;4465596;28;20050;-65
2022/07/25 06:35:39;;;;;;;2.30;2.00;;;;;;;;;;4452953;28;20040;-65
2022/07/25 06:37:49;;;;;;;2.60;2.25;;;;;;;;;;4463793;28;20042;-64
2022/07/25 06:40:00;;;;;;;2.28;1.90;;;;;;;;;;4457137;28;20571;-64
2022/07/25 06:42:10;;;;;;;2.42;1.92;;;;;;;;;;4436853;28;20039;-64
2022/07/25 06:44:22;;;;;;;2.17;1.98;;;;;;;;;;4445353;28;20578;-64
2022/07/25 06:46:32;;;;;;;1.95;1.75;;;;;;;;;;4462626;28;20023;-65
2022/07/25 06:48:43;;;;;;;2.10;1.90;;;;;;;;;;4462262;28;20045;-64
2022/07/25 06:50:53;;;;;;;2.17;1.98;;;;;;;;;;4463840;28;20766;-65
2022/07/25 06:53:04;;;;;;;2.30;2.00;;;;;;;;;;4464707;28;20803;-65
2022/07/25 06:55:15;;;;;;;2.35;1.90;;;;;;;;;;4464142;28;20039;-64
2022/07/25 06:57:25;;;;;;;2.35;1.95;;;;;;;;;;4435395;28;20135;-65
2022/07/25 06:59:36;;;;;;;2.70;2.22;;;;;;;;;;4453640;28;20040;-64
2022/07/25 07:01:46;;;;;;;2.00;1.80;;;;;;;;;;4463609;28;20043;-65
2022/07/25 07:03:57;;;;;;;2.53;2.08;;;;;;;;;;4442616;28;20031;-63
2022/07/25 07:06:10;;;;;;;2.13;1.80;;;;;;;;;;4463454;28;20502;-64
2022/07/25 07:08:21;;;;;;;2.25;1.73;;;;;;;;;;4445060;28;20786;-64
2022/07/25 07:10:32;;;;;;;1.98;1.77;;;;;;;;;;4461993;28;20439;-63
2022/07/25 07:12:43;;;;;;;2.40;2.10;;;;;;;;;;4463134;28;20502;-64
2022/07/25 07:14:53;;;;;;;2.00;1.80;;;;;;;;;;4462191;28;20027;-64
2022/07/25 07:17:04;;;;;;;2.10;1.80;;;;;;;;;;4452328;28;20450;-64
2022/07/25 07:19:15;;;;;;;2.40;1.90;;;;;;;;;;4444874;28;20228;-63
2022/07/25 07:21:25;;;;;;;2.10;1.90;;;;;;;;;;4464235;28;20097;-63
2022/07/25 07:23:35;;;;;;;2.50;2.00;;;;;;;;;;4463314;28;20035;-64
2022/07/25 07:25:47;;;;;;;2.60;2.17;;;;;;;;;;4462258;28;20034;-63
2022/07/25 07:27:57;;;;;;;2.10;1.83;;;;;;;;;;4463266;28;20753;-63
2022/07/25 07:30:09;;;;;;;2.17;1.98;;;;;;;;;;4462354;28;20114;-63
2022/07/25 07:32:19;;;;;;;2.20;2.00;;;;;;;;;;4463810;28;20051;-64
2022/07/25 07:34:30;;;;;;;2.00;1.80;;;;;;;;;;4446603;28;20043;-63
2022/07/25 07:36:40;;;;;;;2.00;1.80;;;;;;;;;;4464684;28;20121;-63
2022/07/25 07:38:51;;;;;;;2.38;1.95;;;;;;;;;;4464467;28;20035;-63
2022/07/25 07:41:02;;;;;;;2.08;1.80;;;;;;;;;;4452131;28;20571;-63
2022/07/25 07:43:12;;;;;;;2.03;1.83;;;;;;;;;;4463338;28;20042;-63
2022/07/25 07:45:24;;;;;;;1.98;1.77;;;;;;;;;;4463238;28;20045;-63
2022/07/25 07:47:35;;;;;;;2.38;2.10;;;;;;;;;;4444951;28;20036;-63
2022/07/25 07:49:45;;;;;;;2.20;2.00;;;;;;;;;;4462659;28;20321;-63
2022/07/25 07:51:55;;;;;;;2.15;1.88;;;;;;;;;;4461365;28;20365;-63
2022/07/25 07:56:35;;;;;;;2.15;1.90;;;;;;;;;;4459783;28;20537;-63
2022/07/25 07:58:46;;;;;;;2.58;2.00;;;;;;;;;;4461361;28;20046;-63
2022/07/25 08:00:56;;;;;;;2.42;2.03;;;;;;;;;;4444931;28;20050;-63
2022/07/25 08:03:07;;;;;;;2.45;1.98;;;;;;;;;;4442638;28;20035;-63
2022/07/25 08:05:25;;;;;;;4.28;2.22;;;;;;;;;;4461217;28;20077;-63
2022/07/25 08:07:36;;;;;;;2.35;2.13;;;;;;;;;;4460763;28;20575;-63
2022/07/25 08:09:46;;;;;;;2.42;2.00;;;;;;;;;;4411173;28;20036;-63
2022/07/25 08:11:57;;;;;;;3.83;2.10;;;;;;;;;;4459441;28;20035;-63
2022/07/25 08:14:07;;;;;;;3.13;2.10;;;;;;;;;;4460610;28;20040;-63
2022/07/25 08:16:18;;;;;;;2.35;1.80;;;;;;;;;;4462245;28;20076;-63
2022/07/25 08:18:29;;;;;;;2.30;2.10;;;;;;;;;;4461520;28;20066;-63
2022/07/25 08:20:40;;;;;;;2.20;1.98;;;;;;;;;;4434719;28;20032;-63
2022/07/25 08:22:50;;;;;;;3.05;2.10;;;;;;;;;;4445383;28;20035;-63
2022/07/25 08:25:01;;;;;;;2.40;2.00;;;;;;;;;;4462835;28;20414;-63
2022/07/25 08:27:11;;;;;;;2.00;1.80;;;;;;;;;;4462614;28;20032;-64
2022/07/25 08:29:21;;;;;;;1.98;1.77;;;;;;;;;;4461527;28;20463;-63
2022/07/25 08:31:32;;;;;;;2.67;1.95;;;;;;;;;;4450516;28;20070;-63
2022/07/25 08:33:42;;;;;;;2.00;1.80;;;;;;;;;;4459710;28;20110;-63
2022/07/25 08:35:54;;;;;;;1.88;1.77;;;;;;;;;;4462711;28;20032;-63
2022/07/25 08:38:05;;;;;;;2.28;1.90;;;;;;;;;;4461553;28;20031;-63
2022/07/25 08:40:17;;;;;;;2.15;1.85;;;;;;;;;;4447273;28;20451;-63
2022/07/25 08:42:28;;;;;;;2.35;1.90;;;;;;;;;;4458553;28;20047;-63
2022/07/25 08:44:40;;;;;;;1.90;1.75;;;;;;;;;;4446842;28;20044;-63
2022/07/25 08:46:51;;;;;;;1.83;1.63;;;;;;;;;;4444456;28;20040;-63
2022/07/25 08:49:01;;;;;;;2.60;2.10;;;;;;;;;;4446679;28;20031;-63
2022/07/25 08:51:13;;;;;;;2.28;1.83;;;;;;;;;;4458970;28;20035;-63
2022/07/25 08:53:24;;;;;;;2.10;1.90;;;;;;;;;;4434980;28;20122;-63
2022/07/25 08:55:34;;;;;;;2.25;1.90;;;;;;;;;;4462994;28;20043;-63
2022/07/25 08:57:50;;;;;;;1.98;1.70;;;;;;;;;;4445600;28;20035;-63
2022/07/25 09:00:05;;;;;;;2.10;1.90;;;;;;;;;;4450953;28;20130;-64
2022/07/25 09:02:15;;;;;;;3.13;2.20;;;;;;;;;;4461767;28;20046;-63
2022/07/25 09:04:26;;;;;;;2.63;2.00;;;;;;;;;;4461522;28;20042;-63
2022/07/25 09:06:36;;;;;;;1.98;1.73;;;;;;;;;;4460538;28;20031;-64
2022/07/25 09:08:55;;;;;;;2.70;1.90;;;;;;;;;;4462317;28;20039;-64
2022/07/25 09:11:06;;;;;;;2.22;1.90;;;;;;;;;;4460418;28;20137;-63
2022/07/25 09:13:17;;;;;;;2.30;1.80;;;;;;;;;;4462129;28;20042;-63
2022/07/25 09:15:29;;;;;;;2.30;1.77;;;;;;;;;;4460159;28;20026;-64
2022/07/25 09:17:49;;;;;;;2.05;1.85;;;;;;;;;;4446826;28;20595;-63
2022/07/25 09:19:59;;;;;;;1.70;1.50;;;;;;;;;;4434641;28;20042;-63
2022/07/25 09:22:09;;;;;;;2.22;1.73;;;;;;;;;;4459448;28;20034;-63
2022/07/25 09:24:21;;;;;;;1.98;1.73;;;;;;;;;;4462049;28;20039;-63
2022/07/25 09:26:49;;;;;;;2.00;1.80;;;;;;;;;;4458868;28;20618;-63
2022/07/25 09:28:59;;;;;;;1.77;1.58;;;;;;;;;;4443802;28;20619;-63
2022/07/25 09:31:11;;;;;;;2.75;1.90;;;;;;;;;;4450998;28;20054;-63
2022/07/25 09:33:23;;;;;;;2.00;1.80;;;;;;;;;;4459481;28;20069;-63
2022/07/25 09:35:37;;;;;;;2.03;1.83;;;;;;;;;;4448060;28;20562;-63
2022/07/25 09:37:47;;;;;;;2.00;1.80;;;;;;;;;;4437500;28;20069;-63
2022/07/25 09:39:58;;;;;;;2.25;2.05;;;;;;;;;;4450278;28;20046;-63
2022/07/25 09:42:35;;;;;;;2.38;2.05;;;;;;;;;;4451463;28;20031;-63
2022/07/25 09:44:57;;;;;;;2.10;1.90;;;;;;;;;;4457748;28;20042;-63
2022/07/25 09:47:13;;;;;;;2.05;1.77;;;;;;;;;;4461795;28;20063;-62
2022/07/25 09:49:24;;;;;;;1.90;1.70;;;;;;;;;;4445337;28;20402;-63
2022/07/25 09:51:35;;;;;;;2.15;1.67;;;;;;;;;;4448014;28;20031;-63
2022/07/25 09:53:46;;;;;;;1.73;1.52;;;;;;;;;;4463153;28;20043;-62
2022/07/25 09:55:56;;;;;;;2.22;2.03;;;;;;;;;;4430711;28;20388;-63
2022/07/25 09:58:07;;;;;;;1.70;1.60;;;;;;;;;;4450165;28;20032;-63
2022/07/25 10:00:23;;;;;;;2.10;1.70;;;;;;;;;;4465424;28;20039;-63
2022/07/25 10:02:59;;;;;;;2.13;1.70;;;;;;;;;;4464901;28;20042;-63
2022/07/25 10:05:15;;;;;;;1.95;1.75;;;;;;;;;;4464193;28;20042;-63
2022/07/25 10:07:25;;;;;;;2.27;1.97;;;;;;;;;;4464470;28;20049;-63
2022/07/25 10:09:50;;;;;;;2.03;1.75;;;;;;;;;;4428264;28;20047;-63
2022/07/25 10:12:09;;;;;;;2.45;1.90;;;;;;;;;;4452198;28;20047;-63
2022/07/25 10:14:19;;;;;;;2.00;1.77;;;;;;;;;;4460988;28;20026;-63
2022/07/25 10:16:30;;;;;;;2.33;1.70;;;;;;;;;;4464334;28;20034;-63
2022/07/25 10:18:49;;;;;;;1.73;1.60;;;;;;;;;;4448039;28;20031;-63
2022/07/25 10:21:11;;;;;;;1.92;1.70;;;;;;;;;;4464096;28;20153;-63
2022/07/25 10:23:26;;;;;;;1.92;1.73;;;;;;;;;;4445150;28;20070;-63
2022/07/25 10:25:37;;;;;;;2.25;1.90;;;;;;;;;;4461917;28;20196;-63
2022/07/25 10:27:51;;;;;;;2.42;1.85;;;;;;;;;;4450876;28;20548;-63
2022/07/25 10:30:02;;;;;;;2.20;2.00;;;;;;;;;;4463728;28;20810;-63
2022/07/25 10:32:13;;;;;;;1.83;1.63;;;;;;;;;;4466396;28;20050;-63
2022/07/25 10:34:29;;;;;;;1.77;1.65;;;;;;;;;;4448611;28;20510;-63
2022/07/25 10:36:55;;;;;;;;;;;;;;;;;;4465155;28;20046;-63
2022/07/25 10:39:08;;;;;;;1.20;1.10;;;;;;;;;;4446613;28;19922;-63
2022/07/25 10:41:24;;;;;;;1.30;1.20;;;;;;;;;;4449335;28;20687;-63
2022/07/25 10:43:37;;;;;;;1.42;1.27;;;;;;;;;;4448638;28;20037;-63
2022/07/25 10:45:56;;;;;;;1.80;1.60;;;;;;;;;;4466192;28;20150;-64
2022/07/25 10:48:09;;;;;;;2.13;1.83;;;;;;;;;;4463454;28;20051;-63
2022/07/25 10:50:21;;;;;;;1.73;1.63;;;;;;;;;;4464097;28;20042;-63
2022/07/25 10:52:31;;;;;;;2.08;1.88;;;;;;;;;;4453716;28;20674;-63
2022/07/25 10:54:52;;;;;;;2.05;1.80;;;;;;;;;;4453661;28;20844;-63
2022/07/25 10:57:04;;;;;;;2.20;1.80;;;;;;;;;;4449366;28;20138;-63
2022/07/25 10:59:27;;;;;;;2.00;1.80;;;;;;;;;;4452456;28;20594;-63
2022/07/25 11:01:39;;;;;;;2.10;1.80;;;;;;;;;;4453212;28;20762;-63
2022/07/25 11:03:51;;;;;;;2.03;1.80;;;;;;;;;;4465304;28;20039;-63
2022/07/25 11:06:01;;;;;;;2.50;2.03;;;;;;;;;;4433467;28;20028;-63
2022/07/25 11:08:12;;;;;;;2.10;1.83;;;;;;;;;;4465137;28;20480;-63
2022/07/25 11:10:26;;;;;;;2.42;2.00;;;;;;;;;;4462802;28;20040;-63
2022/07/25 11:12:37;;;;;;;2.88;2.22;;;;;;;;;;4444973;28;20871;-63
2022/07/25 11:14:47;;;;;;;1.90;1.70;;;;;;;;;;4450316;28;20038;-62
2022/07/25 11:17:15;;;;;;;2.20;1.80;;;;;;;;;;4466809;28;20071;-63
2022/07/25 11:19:28;;;;;;;2.30;1.73;;;;;;;;;;4463608;28;20035;-62
2022/07/25 11:21:47;;;;;;;2.08;1.88;;;;;;;;;;4447235;28;20577;-63
2022/07/25 11:23:57;;;;;;;2.60;2.17;;;;;;;;;;4462898;28;21285;-62
2022/07/25 11:26:12;;;;;;;2.10;1.80;;;;;;;;;;4463680;28;20042;-62
2022/07/25 11:28:22;;;;;;;2.00;1.80;;;;;;;;;;4459436;28;20973;-62
2022/07/25 11:30:32;;;;;;;1.90;1.70;;;;;;;;;;4461645;28;20026;-63
2022/07/25 11:32:44;;;;;;;1.90;1.60;;;;;;;;;;4460859;28;20051;-62
2022/07/25 11:34:54;;;;;;;1.77;1.58;;;;;;;;;;4446354;28;20042;-62
2022/07/25 11:37:06;;;;;;;1.65;1.55;;;;;;;;;;4462925;28;20035;-62
2022/07/25 11:39:17;;;;;;;1.83;1.60;;;;;;;;;;4464565;28;20035;-63
2022/07/25 11:41:29;;;;;;;1.83;1.60;;;;;;;;;;4434349;28;20063;-63
2022/07/25 11:43:47;;;;;;;2.13;1.80;;;;;;;;;;4463694;28;20039;-63
2022/07/25 11:46:02;;;;;;;1.70;1.60;;;;;;;;;;4463027;28;20050;-63
2022/07/25 11:48:13;;;;;;;2.10;1.90;;;;;;;;;;4450590;28;20036;-63
2022/07/25 11:50:29;;;;;;;1.90;1.73;;;;;;;;;;4450135;28;20044;-63
2022/07/25 11:52:44;;;;;;;1.63;1.52;;;;;;;;;;4448195;28;20039;-63
2022/07/25 11:55:00;;;;;;;2.38;1.80;;;;;;;;;;4464478;28;20142;-63
2022/07/25 11:57:19;;;;;;;1.60;1.50;;;;;;;;;;4463769;28;20042;-64
2022/07/25 11:59:40;;;;;;;1.70;1.50;;;;;;;;;;4463677;28;20593;-63
2022/07/25 12:01:51;;;;;;;1.80;1.52;;;;;;;;;;4462418;28;20043;-63
2022/07/25 12:04:15;;;;;;;2.00;1.70;;;;;;;;;;4435527;28;20039;-64
2022/07/25 12:06:28;;;;;;;1.90;1.70;;;;;;;;;;4464137;28;20166;-63
2022/07/25 12:08:41;;;;;;;1.65;1.50;;;;;;;;;;4440997;28;20032;-64
2022/07/25 12:10:51;;;;;;;1.83;1.60;;;;;;;;;;4466055;28;21232;-61
2022/07/25 12:13:03;;;;;;;1.80;1.55;;;;;;;;;;4461724;28;20046;-61
2022/07/25 12:15:15;;;;;;;1.65;1.52;;;;;;;;;;4449198;28;20035;-61
2022/07/25 12:17:25;;;;;;;2.00;1.60;;;;;;;;;;4461898;28;20026;-61
2022/07/25 12:19:38;;;;;;;1.70;1.60;;;;;;;;;;4444893;28;20039;-62
2022/07/25 12:21:49;;;;;;;2.03;1.83;;;;;;;;;;4460943;28;20046;-61
2022/07/25 12:23:59;;;;;;;1.98;1.52;;;;;;;;;;4447551;28;20035;-61
2022/07/25 12:26:12;;;;;;;1.85;1.55;;;;;;;;;;4447088;28;20503;-61
2022/07/25 12:28:22;;;;;;;2.65;1.70;;;;;;;;;;4463443;28;20134;-62
2022/07/25 12:30:33;;;;;;;1.95;1.63;;;;;;;;;;4463539;28;20051;-62
2022/07/25 12:32:44;;;;;;;2.15;1.83;;;;;;;;;;4447392;28;20111;-62
2022/07/25 12:34:54;;;;;;;2.10;1.77;;;;;;;;;;4461581;28;20471;-62
2022/07/25 12:37:05;;;;;;;1.88;1.65;;;;;;;;;;4462792;28;20031;-61
2022/07/25 12:39:15;;;;;;;2.03;1.73;;;;;;;;;;4463675;28;20031;-62
2022/07/25 12:41:26;;;;;;;1.95;1.60;;;;;;;;;;4462779;28;20118;-62
2022/07/25 12:43:36;;;;;;;1.90;1.70;;;;;;;;;;4460153;28;20484;-62
2022/07/25 12:45:47;;;;;;;2.20;1.50;;;;;;;;;;4462492;28;20039;-63
2022/07/25 12:47:58;;;;;;;2.35;1.83;;;;;;;;;;4452648;28;20491;-62
2022/07/25 12:50:08;;;;;;;1.88;1.67;;;;;;;;;;4462805;28;20577;-62
2022/07/25 12:52:19;;;;;;;2.10;1.73;;;;;;;;;;4446103;28;20039;-62
2022/07/25 12:54:30;;;;;;;1.58;1.48;;;;;;;;;;4458106;28;20779;-63
2022/07/25 12:56:40;;;;;;;2.03;1.58;;;;;;;;;;4447763;28;20049;-63
2022/07/25 12:58:51;;;;;;;1.65;1.45;;;;;;;;;;4460212;28;20034;-63
2022/07/25 13:01:01;;;;;;;2.03;1.77;;;;;;;;;;4447557;28;20191;-63
2022/07/25 13:03:12;;;;;;;1.75;1.60;;;;;;;;;;4460655;28;20221;-63
2022/07/25 13:05:24;;;;;;;1.92;1.70;;;;;;;;;;4451005;28;20114;-63
2022/07/25 13:07:35;;;;;;;2.30;1.88;;;;;;;;;;4434213;28;20625;-63
2022/07/25 13:09:45;;;;;;;1.80;1.60;;;;;;;;;;4446697;28;20028;-63
2022/07/25 13:11:56;;;;;;;2.00;1.75;;;;;;;;;;4462703;28;20047;-63
2022/07/25 13:14:06;;;;;;;2.08;1.80;;;;;;;;;;4461344;28;20039;-63
2022/07/25 13:16:17;;;;;;;1.75;1.60;;;;;;;;;;4460218;28;20535;-63